Time;durP1;ratioP1;P1;durP2;ratioP2;P2;SDS_P1;SDS_P2;PMS_P1;PMS_P2;Temp;Humidity;BMP_temperature;BMP_pressure;BME280_temperature;BME280_humidity;BME280_pressure;Samples;Min_cycle;Max_cycle;Signal;HPM_P1;HPM_P2
2022/04/22 00:00:27;;;;;;;6.90;6.20;;;;;;;10.95;94.95;98194.84;4975238;28;20704;-86
2022/04/22 00:02:54;;;;;;;8.05;6.70;;;;;;;10.99;95.11;98187.34;4976109;28;20270;-85
2022/04/22 00:05:21;;;;;;;7.05;6.35;;;;;;;10.91;95.90;98193.38;4976074;28;20685;-85
2022/04/22 00:07:47;;;;;;;9.48;6.40;;;;;;;10.70;98.29;98195.13;4976512;28;20188;-86
2022/04/22 00:10:15;;;;;;;8.93;7.38;;;;;;;10.68;99.57;98189.03;4975914;28;20699;-84
2022/04/22 00:12:43;;;;;;;8.30;6.85;;;;;;;10.69;99.71;98186.19;4975089;28;20215;-84
2022/04/22 00:15:12;;;;;;;7.93;6.82;;;;;;;10.56;100.00;98180.06;4976350;28;20208;-85
2022/04/22 00:17:41;;;;;;;8.43;6.75;;;;;;;10.61;100.00;98184.13;4975890;28;20196;-85
2022/04/22 00:20:10;;;;;;;8.02;6.80;;;;;;;10.64;100.00;98183.88;4976107;28;20199;-86
2022/04/22 00:22:39;;;;;;;7.25;6.28;;;;;;;10.61;100.00;98186.81;4975142;28;20302;-85
2022/04/22 00:25:08;;;;;;;8.45;7.60;;;;;;;10.56;100.00;98188.16;4976033;28;20653;-84
2022/04/22 00:27:35;;;;;;;8.07;7.18;;;;;;;10.54;100.00;98188.28;4975546;28;20272;-84
2022/04/22 00:30:01;;;;;;;8.50;7.65;;;;;;;10.55;100.00;98184.63;4974973;28;20203;-85
2022/04/22 00:32:28;;;;;;;7.75;6.72;;;;;;;10.47;100.00;98187.09;4975234;28;20189;-87
2022/04/22 00:34:56;;;;;;;8.70;6.97;;;;;;;10.64;100.00;98185.72;4975731;28;20218;-85
2022/04/22 00:37:22;;;;;;;8.15;7.13;;;;;;;10.51;100.00;98179.59;4975620;28;20180;-86
2022/04/22 00:39:49;;;;;;;8.27;7.22;;;;;;;10.41;100.00;98177.66;4975671;28;20637;-85
2022/04/22 00:42:16;;;;;;;8.00;6.85;;;;;;;10.45;100.00;98178.28;4974049;28;20630;-84
2022/04/22 00:44:43;;;;;;;7.78;6.85;;;;;;;10.33;100.00;98181.94;4974700;28;20306;-84
2022/04/22 00:47:09;;;;;;;8.80;7.85;;;;;;;10.33;100.00;98168.47;4974877;28;20185;-84
2022/04/22 00:49:36;;;;;;;8.88;7.47;;;;;;;10.32;100.00;98174.84;4974425;28;20200;-86
2022/04/22 00:52:05;;;;;;;8.60;7.05;;;;;;;10.32;100.00;98159.56;4974397;28;20184;-87
2022/04/22 00:54:33;;;;;;;9.48;7.15;;;;;;;10.18;100.00;98171.38;4974985;28;20204;-84
2022/04/22 00:57:00;;;;;;;8.60;7.60;;;;;;;10.21;100.00;98162.22;4956250;28;20540;-84
2022/04/22 00:59:29;;;;;;;9.45;8.02;;;;;;;10.17;100.00;98161.59;4963457;28;20198;-87
2022/04/22 01:01:55;;;;;;;9.35;8.35;;;;;;;10.09;100.00;98161.34;4974396;28;20215;-85
2022/04/22 01:09:52;;;;;;;9.18;7.68;;;;;;;9.97;100.00;98165.00;4978433;28;20215;-86
2022/04/22 01:12:19;;;;;;;9.93;8.18;;;;;;;10.08;100.00;98156.09;4977782;28;20192;-85
2022/04/22 01:14:47;;;;;;;11.50;8.13;;;;;;;9.99;100.00;98150.47;4978093;28;20624;-85
2022/04/22 01:17:14;;;;;;;10.82;8.07;;;;;;;9.84;100.00;98146.31;4976552;28;20205;-84
2022/04/22 01:19:42;;;;;;;10.93;9.52;;;;;;;9.81;100.00;98144.72;4977384;28;20618;-85
2022/04/22 01:22:10;;;;;;;9.27;8.15;;;;;;;9.90;100.00;98140.41;4976932;28;20207;-84
2022/04/22 01:24:37;;;;;;;10.82;9.35;;;;;;;9.87;100.00;98143.34;4977136;28;20204;-85
2022/04/22 01:27:05;;;;;;;10.82;9.45;;;;;;;9.85;100.00;98137.25;4976568;28;20574;-85
2022/04/22 01:29:33;;;;;;;11.88;8.65;;;;;;;9.71;100.00;98130.25;4978255;28;20209;-83
2022/04/22 01:32:00;;;;;;;10.48;8.50;;;;;;;9.61;100.00;98131.97;4978056;28;20235;-84
2022/04/22 01:34:27;;;;;;;12.25;9.75;;;;;;;9.57;100.00;98119.75;4958424;28;20202;-84
2022/04/22 01:36:54;;;;;;;11.43;9.00;;;;;;;9.50;100.00;98129.25;4958441;28;20726;-84
2022/04/22 01:39:22;;;;;;;11.15;9.13;;;;;;;9.53;100.00;98120.94;4956958;28;20213;-84
2022/04/22 01:41:48;;;;;;;10.25;9.15;;;;;;;9.48;100.00;98126.69;4974457;28;20302;-83
2022/04/22 01:44:16;;;;;;;13.27;10.80;;;;;;;9.54;100.00;98119.97;4976976;28;20644;-83
2022/04/22 01:46:42;;;;;;;11.02;9.55;;;;;;;9.42;100.00;98116.41;4976677;28;20202;-83
2022/04/22 01:49:09;;;;;;;14.48;9.65;;;;;;;9.44;100.00;98121.66;4978245;28;20191;-83
2022/04/22 01:51:36;;;;;;;13.60;9.10;;;;;;;9.48;100.00;98113.25;4978000;28;20202;-83
2022/04/22 01:54:03;;;;;;;11.30;8.90;;;;;;;9.61;100.00;98110.47;4977803;28;20260;-83
2022/04/22 01:56:31;;;;;;;14.30;11.10;;;;;;;9.57;100.00;98120.59;4977811;28;20203;-83
2022/04/22 01:58:57;;;;;;;14.40;10.25;;;;;;;9.55;100.00;98122.53;4977546;28;20716;-83
2022/04/22 02:01:24;;;;;;;13.35;9.73;;;;;;;9.54;100.00;98120.84;4977670;28;20216;-84
2022/04/22 02:03:51;;;;;;;12.27;10.07;;;;;;;9.54;100.00;98119.97;4977634;28;20637;-84
2022/04/22 02:06:17;;;;;;;14.00;10.43;;;;;;;9.46;100.00;98128.63;4977643;28;20651;-84
2022/04/22 02:08:44;;;;;;;13.90;10.98;;;;;;;9.45;100.00;98118.88;4977301;28;20204;-83
2022/04/22 02:11:10;;;;;;;15.25;11.50;;;;;;;9.34;100.00;98114.31;4976283;28;20199;-84
2022/04/22 02:13:38;;;;;;;14.32;11.10;;;;;;;9.31;100.00;98125.28;4976945;28;20201;-84
2022/04/22 02:16:06;;;;;;;13.73;10.48;;;;;;;9.40;100.00;98111.13;4979425;28;20655;-83
2022/04/22 02:18:36;;;;;;;14.77;11.15;;;;;;;9.37;100.00;98108.69;4980269;28;20669;-84
2022/04/22 02:21:04;;;;;;;13.85;11.07;;;;;;;9.22;100.00;98100.97;4980783;28;20194;-83
2022/04/22 02:23:31;;;;;;;16.92;12.00;;;;;;;9.13;100.00;98100.69;4979339;28;20210;-83
2022/04/22 02:25:58;;;;;;;14.32;11.77;;;;;;;9.10;100.00;98083.97;4978478;28;20214;-84
2022/04/22 02:28:33;;;;;;;15.00;11.50;;;;;;;9.22;100.00;98091.06;4978140;28;20248;-83
2022/04/22 02:31:03;;;;;;;15.00;11.90;;;;;;;9.11;100.00;98085.66;4977926;28;20625;-83
2022/04/22 02:33:31;;;;;;;14.40;11.65;;;;;;;9.09;100.00;98087.59;4978197;28;20217;-77
2022/04/22 02:35:57;;;;;;;18.05;13.63;;;;;;;8.98;100.00;98086.59;4974986;28;20197;-77
2022/04/22 02:38:24;;;;;;;17.42;12.27;;;;;;;9.11;100.00;98088.34;4975526;28;20190;-76
2022/04/22 02:46:20;;;;;;;17.40;12.38;;;;;;;8.98;100.00;98081.22;4974968;28;20205;-76
2022/04/22 02:48:48;;;;;;;18.95;13.05;;;;;;;8.97;100.00;98074.13;4974926;28;20201;-77
2022/04/22 02:51:14;;;;;;;17.35;12.85;;;;;;;8.96;100.00;98072.44;4974433;28;20217;-78
2022/04/22 02:53:41;;;;;;;17.42;12.73;;;;;;;8.89;100.00;98071.19;4974970;28;20186;-77
2022/04/22 02:56:08;;;;;;;18.58;13.40;;;;;;;8.83;100.00;98077.03;4974602;28;20226;-76
2022/04/22 02:58:35;;;;;;;20.42;14.70;;;;;;;8.81;100.00;98060.16;4974571;28;20648;-78
2022/04/22 03:01:02;;;;;;;16.60;13.23;;;;;;;8.77;100.00;98064.06;4975171;28;20200;-76
2022/04/22 03:03:31;;;;;;;18.48;13.60;;;;;;;8.82;100.00;98066.38;4975202;28;20987;-77
2022/04/22 03:05:57;;;;;;;22.90;15.05;;;;;;;8.77;100.00;98064.94;4973837;28;20211;-77
2022/04/22 03:08:24;;;;;;;16.30;13.20;;;;;;;8.74;100.00;98061.59;4974952;28;20204;-76
2022/04/22 03:10:51;;;;;;;16.35;13.43;;;;;;;8.66;100.00;98059.50;4974078;28;20194;-77
2022/04/22 03:13:17;;;;;;;17.25;13.05;;;;;;;8.76;100.00;98056.97;4974264;28;20802;-76
2022/04/22 03:15:44;;;;;;;20.50;13.43;;;;;;;8.68;100.00;98062.06;4974949;28;20957;-78
2022/04/22 03:18:12;;;;;;;18.77;13.55;;;;;;;8.68;100.00;98056.69;4974752;28;20951;-78
2022/04/22 03:20:40;;;;;;;21.23;14.55;;;;;;;8.64;100.00;98050.72;4974003;28;20202;-78
2022/04/22 03:23:06;;;;;;;18.90;14.02;;;;;;;8.71;100.00;98048.44;4974118;28;20225;-77
2022/04/22 03:25:33;;;;;;;18.65;14.90;;;;;;;8.53;100.00;98047.97;4973905;28;20197;-77
2022/04/22 03:27:59;;;;;;;21.52;14.05;;;;;;;8.65;100.00;98054.25;4973405;28;20189;-76
2022/04/22 03:30:26;;;;;;;18.90;13.95;;;;;;;8.48;100.00;98048.31;4973749;28;20237;-77
2022/04/22 03:32:53;;;;;;;20.55;14.77;;;;;;;8.34;100.00;98056.47;4973284;28;20187;-76
2022/04/22 03:35:19;;;;;;;23.08;14.32;;;;;;;8.33;100.00;98057.47;4973841;28;20201;-76
2022/04/22 03:37:47;;;;;;;19.60;15.23;;;;;;;8.27;100.00;98050.72;4973142;28;20203;-78
2022/04/22 03:40:14;;;;;;;22.27;14.93;;;;;;;8.30;100.00;98055.03;4974133;28;20210;-77
2022/04/22 03:42:41;;;;;;;24.52;16.10;;;;;;;8.30;100.00;98053.19;4973950;28;20213;-78
2022/04/22 03:45:08;;;;;;;19.63;14.50;;;;;;;8.23;100.00;98056.41;4974013;28;20283;-78
2022/04/22 03:47:35;;;;;;;20.98;14.88;;;;;;;8.27;100.00;98052.53;4973743;28;20215;-76
2022/04/22 03:50:02;;;;;;;20.80;14.75;;;;;;;8.20;100.00;98053.97;4974014;28;20190;-77
2022/04/22 03:52:28;;;;;;;21.27;15.68;;;;;;;8.17;100.00;98055.06;4973501;28;20182;-77
2022/04/22 03:54:56;;;;;;;19.65;14.15;;;;;;;8.22;100.00;98054.72;4973699;28;20200;-77
2022/04/22 04:00:08;;;;;;;21.63;14.35;;;;;;;8.21;100.00;98043.13;4973440;28;20191;-76
2022/04/22 04:02:35;;;;;;;21.30;15.48;;;;;;;8.19;100.00;98044.22;4973371;28;20315;-77
2022/04/22 04:05:02;;;;;;;23.65;16.45;;;;;;;8.15;100.00;98048.94;4973836;28;20299;-77
2022/04/22 04:07:29;;;;;;;22.42;17.20;;;;;;;8.16;100.00;98053.31;4973485;28;20194;-77
2022/04/22 04:18:09;;;;;;;26.48;18.15;;;;;;;8.06;100.00;98039.75;4973184;28;20252;-78
2022/04/22 04:23:19;;;;;;;27.25;18.27;;;;;;;8.19;100.00;98046.91;4972684;28;20224;-76
2022/04/22 04:25:50;;;;;;;24.65;18.15;;;;;;;8.25;100.00;98046.44;4954720;28;20198;-77
2022/04/22 04:28:17;;;;;;;27.02;17.75;;;;;;;8.28;100.00;98051.59;4961222;28;20195;-77
2022/04/22 04:30:45;;;;;;;28.48;17.83;;;;;;;8.29;100.00;98050.59;4973603;28;20686;-77
2022/04/22 04:33:11;;;;;;;24.92;18.27;;;;;;;8.18;100.00;98047.84;4973691;28;20197;-78
2022/04/22 04:35:39;;;;;;;23.60;17.00;;;;;;;8.23;100.00;98049.25;4973063;28;20313;-76
2022/04/22 04:38:07;;;;;;;28.00;18.55;;;;;;;8.22;100.00;98049.34;4973438;28;20679;-77
2022/04/22 04:40:35;;;;;;;27.15;18.60;;;;;;;8.23;100.00;98049.25;4975044;28;20643;-77
2022/04/22 04:43:03;;;;;;;28.15;18.98;;;;;;;8.21;100.00;98048.50;4976838;28;20234;-76
2022/04/22 04:45:30;;;;;;;30.25;19.83;;;;;;;8.11;100.00;98044.75;4977166;28;20193;-77
2022/04/22 04:47:57;;;;;;;32.67;19.38;;;;;;;8.44;100.00;98049.50;4977038;28;20196;-76
2022/04/22 04:50:23;;;;;;;29.85;21.15;;;;;;;8.34;100.00;98046.63;4977165;28;20210;-77
2022/04/22 04:52:50;;;;;;;32.80;20.58;;;;;;;8.12;100.00;98046.50;4976977;28;20269;-77
2022/04/22 04:55:17;;;;;;;38.13;21.10;;;;;;;8.33;100.00;98049.41;4976955;28;20280;-76
2022/04/22 04:57:44;;;;;;;29.92;19.52;;;;;;;8.20;100.00;98040.56;4976749;28;20554;-78
2022/04/22 05:00:13;;;;;;;29.50;19.60;;;;;;;8.43;100.00;98047.78;4976883;28;20637;-78
2022/04/22 05:02:41;;;;;;;30.67;19.92;;;;;;;8.58;100.00;98047.63;4976475;28;20220;-76
2022/04/22 05:05:09;;;;;;;29.98;19.83;;;;;;;8.23;100.00;98038.53;4976597;28;20189;-77
2022/04/22 05:07:47;;;;;;;26.85;18.92;;;;;;;8.22;100.00;98046.66;4976354;28;20293;-77
2022/04/22 05:10:13;;;;;;;27.67;19.80;;;;;;;8.35;100.00;98042.13;4976244;28;20544;-78
2022/04/22 05:12:40;;;;;;;28.75;20.42;;;;;;;8.31;100.00;98043.31;4976245;28;20204;-77
2022/04/22 05:15:08;;;;;;;32.13;21.60;;;;;;;8.26;100.00;98042.81;4976472;28;20213;-76
2022/04/22 05:17:36;;;;;;;33.30;21.48;;;;;;;8.23;100.00;98051.03;4976038;28;20202;-77
2022/04/22 05:20:03;;;;;;;30.42;20.23;;;;;;;8.53;100.00;98050.66;4976198;28;20284;-77
2022/04/22 05:22:30;;;;;;;29.27;20.15;;;;;;;8.28;100.00;98041.72;4975727;28;20209;-76
2022/04/22 05:24:57;;;;;;;27.25;19.65;;;;;;;8.36;100.00;98033.09;4975731;28;20205;-77
2022/04/22 05:27:23;;;;;;;30.58;20.65;;;;;;;8.67;100.00;98049.63;4976329;28;20189;-77
2022/04/22 05:32:38;;;;;;;31.52;20.98;;;;;;;8.89;100.00;98044.34;4975248;28;20203;-76
2022/04/22 05:35:06;;;;;;;31.33;19.73;;;;;;;9.18;100.00;98049.34;4965666;28;20201;-76
2022/04/22 05:37:43;;;;;;;30.60;21.80;;;;;;;9.16;100.00;98045.91;4976041;28;20200;-77
2022/04/22 05:40:11;;;;;;;29.70;20.00;;;;;;;9.51;100.00;98050.34;4975691;28;20205;-77
2022/04/22 05:42:38;;;;;;;29.05;20.30;;;;;;;9.39;100.00;98057.56;4975524;28;20211;-77
2022/04/22 05:45:06;;;;;;;28.00;19.73;;;;;;;9.37;100.00;98046.06;4975699;28;20249;-77
2022/04/22 05:47:33;;;;;;;31.13;21.52;;;;;;;9.27;100.00;98045.94;4975637;28;20199;-76
2022/04/22 05:50:01;;;;;;;30.75;20.58;;;;;;;9.36;100.00;98055.09;4975098;28;20202;-76
2022/04/22 05:52:28;;;;;;;29.80;19.88;;;;;;;9.55;100.00;98062.59;4975163;28;20281;-78
2022/04/22 05:54:57;;;;;;;33.55;21.17;;;;;;;9.48;100.00;98058.66;4975773;28;20186;-76
2022/04/22 05:57:24;;;;;;;33.00;18.63;;;;;;;9.92;100.00;98049.75;4974958;28;20649;-76
2022/04/22 05:59:51;;;;;;;30.77;20.70;;;;;;;10.07;100.00;98057.59;4972971;28;20204;-76
2022/04/22 06:02:18;;;;;;;34.78;18.75;;;;;;;10.53;100.00;98054.69;4971635;28;20307;-77
2022/04/22 06:04:44;;;;;;;30.35;20.20;;;;;;;10.36;100.00;98052.56;4975467;28;20216;-75
2022/04/22 06:07:12;;;;;;;28.42;19.27;;;;;;;10.26;100.00;98054.25;4975633;28;20192;-77
2022/04/22 06:12:23;;;;;;;30.05;20.50;;;;;;;9.80;100.00;98035.47;4974639;28;20195;-76
2022/04/22 06:14:49;;;;;;;33.72;20.30;;;;;;;10.26;100.00;98038.97;4975256;28;20198;-77
2022/04/22 06:17:16;;;;;;;31.60;21.52;;;;;;;10.56;100.00;98038.31;4975079;28;20196;-77
2022/04/22 06:19:43;;;;;;;28.08;20.58;;;;;;;11.23;100.00;98042.53;4974959;28;20211;-76
2022/04/22 06:22:09;;;;;;;29.85;19.15;;;;;;;11.23;97.53;98042.53;4974884;28;20184;-77
2022/04/22 06:24:37;;;;;;;26.67;18.42;;;;;;;11.29;100.00;98049.25;4974938;28;20227;-77
2022/04/22 06:27:04;;;;;;;28.65;18.45;;;;;;;11.83;97.67;98040.06;4975518;28;20208;-76
2022/04/22 06:29:31;;;;;;;25.85;18.08;;;;;;;12.40;97.67;98042.25;4975090;28;20184;-78
2022/04/22 06:31:58;;;;;;;28.98;18.67;;;;;;;12.08;93.47;98044.16;4974558;28;20226;-76
2022/04/22 06:34:25;;;;;;;25.50;18.45;;;;;;;12.41;92.98;98035.84;4974921;28;20184;-78
2022/04/22 06:36:52;;;;;;;27.13;18.45;;;;;;;12.43;85.89;98031.19;4975218;28;20210;-77
2022/04/22 06:39:19;;;;;;;26.63;20.08;;;;;;;12.34;85.38;98037.41;4975184;28;20195;-76
2022/04/22 06:47:16;;;;;;;25.10;18.75;;;;;;;13.42;81.86;98034.63;4955175;29;20191;-76
2022/04/22 06:49:43;;;;;;;25.70;19.17;;;;;;;13.82;79.62;98035.41;4955380;28;20193;-76
2022/04/22 06:52:11;;;;;;;22.10;16.73;;;;;;;13.08;84.87;98032.38;4958080;28;20208;-76
2022/04/22 06:54:38;;;;;;;19.40;15.02;;;;;;;13.65;84.92;98034.28;4974439;28;20202;-77
2022/04/22 06:57:07;;;;;;;24.67;18.15;;;;;;;13.67;76.54;98026.88;4972283;28;20210;-76
2022/04/22 06:59:35;;;;;;;25.23;17.80;;;;;;;13.48;81.41;98036.75;4974087;28;20540;-77
2022/04/22 07:02:02;;;;;;;23.48;16.42;;;;;;;14.02;81.30;98034.31;4972969;28;20243;-76
2022/04/22 07:04:29;;;;;;;23.13;17.13;;;;;;;14.42;74.15;98032.25;4972913;28;20223;-75
2022/04/22 07:06:56;;;;;;;23.85;17.77;;;;;;;14.58;75.07;98027.03;4972626;28;20637;-75
2022/04/22 07:09:23;;;;;;;21.33;16.95;;;;;;;14.36;72.07;98021.03;4973734;28;20613;-74
2022/04/22 07:11:52;;;;;;;22.02;17.17;;;;;;;14.54;72.27;98021.09;4973684;28;20195;-75
2022/04/22 07:14:21;;;;;;;23.63;16.48;;;;;;;14.85;71.94;98026.13;4973602;28;20202;-75
2022/04/22 07:16:49;;;;;;;23.80;17.23;;;;;;;12.68;78.15;98022.53;4972945;28;20194;-75
2022/04/22 07:19:16;;;;;;;24.02;18.25;;;;;;;12.43;85.29;98017.69;4973434;28;20229;-75
2022/04/22 07:21:45;;;;;;;21.15;16.20;;;;;;;13.22;81.59;98012.16;4973583;28;20209;-76
2022/04/22 07:24:12;;;;;;;25.08;18.60;;;;;;;13.15;76.78;98011.03;4973933;28;20204;-75
2022/04/22 07:26:43;;;;;;;22.55;16.55;;;;;;;13.56;78.89;98004.41;4973759;28;20188;-76
2022/04/22 07:29:13;;;;;;;24.58;18.60;;;;;;;12.91;78.21;98009.63;4973955;28;20192;-78
2022/04/22 07:31:41;;;;;;;21.85;17.52;;;;;;;13.06;78.45;98011.91;4973436;28;20228;-75
2022/04/22 07:34:09;;;;;;;23.48;16.95;;;;;;;12.51;82.00;98013.31;4973136;28;20196;-74
2022/04/22 07:36:37;;;;;;;24.27;17.90;;;;;;;13.32;77.53;98014.88;4973794;28;20216;-77
2022/04/22 07:39:04;;;;;;;22.13;16.80;;;;;;;13.42;80.99;98010.31;4973050;28;20281;-75
2022/04/22 07:41:33;;;;;;;23.83;16.92;;;;;;;12.98;78.72;98004.50;4973075;28;20288;-75
2022/04/22 07:46:48;;;;;;;25.50;16.35;;;;;;;13.42;77.73;98007.59;4972383;28;20630;-75
2022/04/22 07:49:15;;;;;;;19.88;14.80;;;;;;;13.83;78.69;98005.47;4972802;28;20198;-76
2022/04/22 07:51:42;;;;;;;24.13;16.90;;;;;;;13.94;74.75;98016.09;4972154;28;20292;-76
2022/04/22 07:54:09;;;;;;;20.98;16.77;;;;;;;13.34;78.37;98010.16;4973654;28;20189;-78
2022/04/22 07:56:36;;;;;;;26.67;17.98;;;;;;;13.67;75.24;98007.97;4973031;28;20574;-76
2022/04/22 07:59:02;;;;;;;25.75;18.52;;;;;;;13.11;77.12;98009.59;4972968;28;20195;-76
2022/04/22 08:01:31;;;;;;;21.08;15.48;;;;;;;14.13;72.79;98000.78;4972938;28;20297;-75
2022/04/22 08:03:59;;;;;;;22.02;15.50;;;;;;;15.15;69.70;98024.91;4972948;28;20221;-75
2022/04/22 08:06:26;;;;;;;21.50;16.48;;;;;;;14.74;66.56;98012.81;4972910;28;20203;-78
2022/04/22 08:08:53;;;;;;;24.10;17.90;;;;;;;14.54;66.74;98012.06;4972919;28;20713;-76
2022/04/22 08:11:20;;;;;;;25.67;19.02;;;;;;;14.13;70.17;98011.59;4973022;28;20216;-76
2022/04/22 08:13:46;;;;;;;26.77;21.55;;;;;;;14.54;69.20;98004.84;4971971;28;20205;-77
2022/04/22 08:16:14;;;;;;;21.33;16.00;;;;;;;14.26;68.15;98005.84;4975605;28;20197;-77
2022/04/22 08:18:40;;;;;;;29.83;23.30;;;;;;;14.99;68.29;97998.50;4977041;28;20376;-77
2022/04/22 08:21:10;;;;;;;22.85;20.40;;;;;;;14.63;66.11;98003.06;4976804;28;20659;-77
2022/04/22 08:23:36;;;;;;;22.20;16.13;;;;;;;14.47;66.63;98005.56;4976540;28;20239;-77
2022/04/22 08:26:04;;;;;;;23.13;18.10;;;;;;;14.56;67.11;98010.97;4976426;28;20278;-77
2022/04/22 08:28:30;;;;;;;23.65;18.35;;;;;;;15.22;65.54;98003.44;4976949;28;20209;-77
2022/04/22 08:30:57;;;;;;;21.13;17.67;;;;;;;15.15;64.51;98000.50;4976611;28;20224;-78
2022/04/22 08:33:24;;;;;;;23.75;17.38;;;;;;;15.58;64.10;97992.47;4978303;28;20191;-77
2022/04/22 08:35:51;;;;;;;21.75;16.38;;;;;;;15.02;67.12;97991.91;4977342;28;20206;-82
2022/04/22 08:38:19;;;;;;;20.08;16.55;;;;;;;14.92;64.62;97994.69;4977322;28;20200;-77
2022/04/22 08:40:47;;;;;;;19.60;16.42;;;;;;;15.14;63.54;97992.50;4977694;28;20198;-80
2022/04/22 08:43:15;;;;;;;21.45;17.33;;;;;;;15.75;61.94;97983.47;4977010;28;20207;-78
2022/04/22 08:45:41;;;;;;;23.38;17.25;;;;;;;16.22;59.36;97983.00;4979116;28;20223;-78
2022/04/22 08:50:55;;;;;;;21.30;15.25;;;;;;;16.35;60.00;97987.09;4982171;28;20230;-76
2022/04/22 08:53:27;;;;;;;19.90;16.10;;;;;;;16.44;58.00;97984.25;4976006;28;20208;-75
2022/04/22 08:55:57;;;;;;;18.65;14.23;;;;;;;16.44;58.08;97983.41;4975697;28;20599;-75
2022/04/22 08:58:25;;;;;;;17.35;13.80;;;;;;;16.60;56.07;97979.88;4975023;28;20214;-76
2022/04/22 09:00:53;;;;;;;21.25;15.50;;;;;;;16.78;55.69;97982.44;4968065;28;20321;-76
2022/04/22 09:03:20;;;;;;;17.40;15.30;;;;;;;16.82;54.91;97975.69;4976438;28;20604;-76
2022/04/22 09:05:47;;;;;;;18.27;14.60;;;;;;;16.30;59.01;97984.88;4976299;28;20234;-75
2022/04/22 09:08:14;;;;;;;20.02;15.40;;;;;;;15.97;58.50;97970.34;4976460;28;20536;-75
2022/04/22 09:10:42;;;;;;;19.38;15.02;;;;;;;16.88;55.50;97975.88;4973791;28;20204;-75
2022/04/22 09:13:10;;;;;;;18.50;14.10;;;;;;;17.08;54.62;97986.41;4971077;28;20234;-74
2022/04/22 09:15:39;;;;;;;19.73;14.65;;;;;;;16.05;56.70;97973.97;4976349;28;20234;-76
2022/04/22 09:18:14;;;;;;;16.20;12.60;;;;;;;16.60;57.87;97971.75;4976175;28;20208;-76
2022/04/22 09:20:41;;;;;;;22.20;14.77;;;;;;;17.09;55.10;97978.09;4977300;28;20264;-77
2022/04/22 09:23:23;;;;;;;18.13;13.40;;;;;;;17.20;53.48;97966.00;4976089;28;20628;-75
2022/04/22 09:25:51;;;;;;;18.27;16.13;;;;;;;17.22;52.06;97977.56;4973632;28;20215;-76
2022/04/22 09:28:18;;;;;;;17.08;13.98;;;;;;;17.04;53.01;97966.03;4975535;28;20196;-75
2022/04/22 09:30:56;;;;;;;18.88;15.70;;;;;;;16.15;55.42;97962.94;4975844;28;20246;-77
2022/04/22 09:33:23;;;;;;;20.27;16.30;;;;;;;16.70;55.23;97949.84;4976982;28;20192;-77
2022/04/22 09:44:30;;;;;;;16.75;14.80;;;;;;;15.43;58.66;97938.00;4983461;28;20267;-77
2022/04/22 09:47:12;;;;;;;18.25;14.23;;;;;;;15.89;57.64;97941.28;4975159;28;20550;-77
2022/04/22 09:49:43;;;;;;;19.00;14.48;;;;;;;15.73;57.42;97933.09;4974832;28;20714;-77
2022/04/22 09:52:10;;;;;;;16.55;13.90;;;;;;;15.95;57.76;97923.53;4975392;28;20495;-75
2022/04/22 09:54:38;;;;;;;17.83;14.45;;;;;;;15.95;56.62;97929.78;4976252;28;20279;-77
2022/04/22 09:57:06;;;;;;;20.48;15.55;;;;;;;16.43;55.09;97930.09;4976059;28;20204;-76
2022/04/22 09:59:35;;;;;;;18.60;14.07;;;;;;;16.65;54.78;97920.44;4975652;28;20192;-76
2022/04/22 10:02:02;;;;;;;18.48;13.57;;;;;;;16.91;53.52;97908.59;4975484;28;20246;-76
2022/04/22 10:04:29;;;;;;;20.83;16.20;;;;;;;16.90;52.83;97915.91;4975781;28;20708;-77
2022/04/22 10:06:56;;;;;;;14.63;12.63;;;;;;;16.45;54.25;97915.31;4975234;28;20196;-75
2022/04/22 10:09:24;;;;;;;19.02;14.50;;;;;;;16.75;52.99;97899.38;4979318;28;20599;-76
2022/04/22 10:11:54;;;;;;;16.63;14.35;;;;;;;17.11;52.00;97904.50;4984620;28;20200;-80
2022/04/22 10:14:36;;;;;;;14.32;12.88;;;;;;;16.35;53.81;97890.19;4975806;28;20618;-78
2022/04/22 10:17:04;;;;;;;17.40;14.45;;;;;;;16.01;55.43;97895.72;4975731;28;20200;-78
2022/04/22 10:19:33;;;;;;;15.75;13.52;;;;;;;15.93;56.81;97899.25;4976075;28;20215;-78
2022/04/22 10:22:01;;;;;;;15.68;13.30;;;;;;;16.67;54.23;97893.97;4976154;28;20188;-79
2022/04/22 10:24:27;;;;;;;17.23;14.88;;;;;;;16.88;51.72;97888.03;4978819;28;20212;-76
2022/04/22 10:26:54;;;;;;;14.63;13.10;;;;;;;16.84;51.76;97879.38;4973844;28;20234;-76
2022/04/22 10:29:22;;;;;;;17.73;13.50;;;;;;;16.58;52.68;97876.81;4976204;28;20195;-79
2022/04/22 10:31:50;;;;;;;24.48;13.73;;;;;;;16.98;51.59;97890.56;4974724;28;20236;-79
2022/04/22 10:34:39;;;;;;;14.07;12.60;;;;;;;17.09;51.37;97882.06;4978540;28;20254;-77
2022/04/22 10:37:05;;;;;;;16.50;13.80;;;;;;;16.81;51.39;97877.00;4971845;28;20212;-78
2022/04/22 10:39:33;;;;;;;18.70;13.50;;;;;;;17.14;51.40;97886.97;4972999;28;20202;-77
2022/04/22 10:42:00;;;;;;;14.38;12.80;;;;;;;17.15;50.84;97880.53;4974216;28;20220;-75
2022/04/22 10:47:15;;;;;;;14.40;12.90;;;;;;;17.89;48.98;97876.56;4974301;28;20203;-76
2022/04/22 10:49:43;;;;;;;15.15;12.82;;;;;;;17.76;48.64;97869.97;4974502;28;20216;-77
2022/04/22 10:52:14;;;;;;;16.27;13.20;;;;;;;17.78;48.46;97862.50;4974813;28;20291;-74
2022/04/22 10:55:12;;;;;;;16.63;13.88;;;;;;;17.41;49.02;97856.69;4974611;28;20185;-76
2022/04/22 10:57:42;;;;;;;15.10;12.57;;;;;;;17.41;49.01;97856.69;4974147;28;20623;-76
2022/04/22 11:00:36;;;;;;;14.68;12.25;;;;;;;17.64;48.18;97861.38;4974274;28;20279;-76
2022/04/22 11:03:10;;;;;;;14.23;12.55;;;;;;;16.98;49.11;97857.94;4972409;28;20618;-76
2022/04/22 11:05:46;;;;;;;15.80;12.55;;;;;;;17.21;48.11;97850.78;4972644;28;20266;-78
2022/04/22 11:08:27;;;;;;;14.40;11.88;;;;;;;17.59;48.40;97848.28;4973694;28;20195;-79
2022/04/22 11:11:15;;;;;;;14.93;11.13;;;;;;;17.90;46.73;97852.91;4976264;28;20214;-78
2022/04/22 11:13:47;;;;;;;15.60;13.70;;;;;;;17.44;46.37;97850.03;4974259;28;20214;-76
2022/04/22 11:16:16;;;;;;;13.57;12.18;;;;;;;17.24;47.02;97839.53;4973859;28;20282;-76
2022/04/22 11:18:44;;;;;;;13.15;11.77;;;;;;;17.19;47.53;97841.09;4974312;28;20207;-79
2022/04/22 11:21:14;;;;;;;12.82;11.52;;;;;;;17.14;48.24;97844.34;4974249;28;20642;-76
2022/04/22 11:23:44;;;;;;;12.85;11.55;;;;;;;17.13;48.62;97844.50;4974271;28;20188;-76
2022/04/22 11:26:14;;;;;;;12.70;11.38;;;;;;;17.09;47.58;97842.16;4975636;28;20251;-79
2022/04/22 11:28:45;;;;;;;12.65;11.30;;;;;;;17.35;47.62;97826.63;4976263;28;20203;-76
2022/04/22 11:31:13;;;;;;;13.25;10.65;;;;;;;17.45;47.02;97832.69;4967936;28;20239;-78
2022/04/22 11:33:54;;;;;;;12.85;11.45;;;;;;;17.35;47.04;97832.06;4976144;28;20284;-78
2022/04/22 11:36:22;;;;;;;12.15;10.95;;;;;;;17.59;46.39;97831.09;4972772;28;20192;-78
2022/04/22 11:38:50;;;;;;;12.20;10.85;;;;;;;17.80;46.97;97838.66;4972794;28;20202;-77
2022/04/22 11:41:17;;;;;;;14.20;9.93;;;;;;;17.71;46.13;97822.38;4972986;28;20181;-75
2022/04/22 11:43:45;;;;;;;12.88;10.35;;;;;;;18.04;44.60;97826.81;4971781;28;20230;-76
2022/04/22 11:46:13;;;;;;;11.93;10.65;;;;;;;17.95;45.09;97825.16;4973597;28;20292;-78
2022/04/22 11:48:53;;;;;;;13.02;11.35;;;;;;;18.22;44.12;97823.78;4973330;28;20255;-79
2022/04/22 11:51:21;;;;;;;13.00;11.45;;;;;;;18.13;44.47;97829.31;4972574;28;20211;-76
2022/04/22 11:53:49;;;;;;;12.10;10.18;;;;;;;18.11;44.46;97825.03;4971591;28;20260;-77
2022/04/22 11:56:20;;;;;;;11.32;10.13;;;;;;;18.17;44.53;97827.06;4972819;28;20647;-79
2022/04/22 11:58:52;;;;;;;12.60;10.23;;;;;;;18.31;44.22;97828.16;4972974;28;20197;-76
2022/04/22 12:07:03;;;;;;;11.38;9.93;;;;;;;18.36;44.47;97827.59;4972119;28;20337;-76
2022/04/22 12:09:50;;;;;;;10.88;9.75;;;;;;;18.11;44.65;97814.16;4953983;29;20186;-78
2022/04/22 12:12:17;;;;;;;11.30;9.60;;;;;;;18.36;45.10;97814.84;4962799;28;20189;-78
2022/04/22 12:14:43;;;;;;;10.43;9.05;;;;;;;18.65;45.38;97807.78;4975592;28;20280;-77
2022/04/22 12:17:10;;;;;;;9.75;8.73;;;;;;;18.88;43.65;97807.75;4974301;28;20292;-80
2022/04/22 12:19:38;;;;;;;10.32;9.02;;;;;;;18.93;42.85;97813.53;4973484;28;20209;-79
2022/04/22 12:22:06;;;;;;;11.95;9.68;;;;;;;19.17;42.50;97799.63;4973260;28;20190;-80